Time;durP1;ratioP1;P1;durP2;ratioP2;P2;SDS_P1;SDS_P2;PMS_P1;PMS_P2;Temp;Humidity;BMP_temperature;BMP_pressure;BME280_temperature;BME280_humidity;BME280_pressure;Samples;Min_cycle;Max_cycle;Signal;HPM_P1;HPM_P2
2022/07/21 00:00:24;;;;;;;3.22;1.95;;;;;;;27.54;35.27;101442.16;143720;576;47004;-68
2022/07/21 00:02:51;;;;;;;4.12;1.70;;;;;;;27.55;34.43;101442.97;143724;603;46006;-68
2022/07/21 00:05:18;;;;;;;3.58;1.65;;;;;;;27.56;34.58;101438.28;143723;658;47002;-68
2022/07/21 00:07:44;;;;;;;3.25;1.60;;;;;;;27.59;34.97;101443.22;143725;623;46010;-68
2022/07/21 00:10:11;;;;;;;4.85;1.55;;;;;;;27.62;34.05;101435.16;143723;572;47004;-68
2022/07/21 00:12:38;;;;;;;3.20;1.70;;;;;;;27.60;33.73;101429.13;143724;604;47006;-67
2022/07/21 00:15:06;;;;;;;2.85;1.60;;;;;;;27.62;33.88;101434.34;143727;575;46006;-67
2022/07/21 00:17:33;;;;;;;4.82;1.55;;;;;;;27.64;34.40;101427.41;143725;584;46010;-67
2022/07/21 00:20:00;;;;;;;3.65;1.60;;;;;;;27.62;34.84;101434.34;143722;592;47004;-74
2022/07/21 00:22:27;;;;;;;3.67;1.65;;;;;;;27.58;33.95;101436.84;143725;577;46922;-68
2022/07/21 00:24:53;;;;;;;5.90;1.75;;;;;;;27.54;34.06;101428.38;143725;604;46015;-67
2022/07/21 00:27:20;;;;;;;2.95;1.42;;;;;;;27.59;34.11;101434.94;143722;640;47010;-67
2022/07/21 00:29:46;;;;;;;3.05;1.60;;;;;;;27.58;33.82;101430.53;143721;586;47004;-67
2022/07/21 00:32:13;;;;;;;3.12;1.42;;;;;;;27.53;34.22;101435.00;143722;567;46006;-67
2022/07/21 00:34:39;;;;;;;2.17;1.30;;;;;;;27.50;33.88;101430.06;143725;578;47002;-67
2022/07/21 00:37:05;;;;;;;4.12;1.60;;;;;;;27.52;34.15;101430.59;143722;575;47010;-68
2022/07/21 00:39:32;;;;;;;2.40;1.20;;;;;;;27.51;34.07;101423.44;143722;572;47004;-68
2022/07/21 00:41:58;;;;;;;2.78;1.37;;;;;;;27.51;34.58;101434.47;143722;599;47002;-68
2022/07/21 00:44:27;;;;;;;2.60;1.45;;;;;;;27.46;34.94;101437.28;143723;570;47002;-68
2022/07/21 00:46:54;;;;;;;4.75;1.40;;;;;;;27.41;35.06;101428.22;143721;629;47010;-68
2022/07/21 00:49:21;;;;;;;3.17;1.70;;;;;;;27.35;35.45;101430.25;143721;575;47004;-68
2022/07/21 00:51:50;;;;;;;2.25;1.33;;;;;;;27.30;35.27;101435.81;143725;573;46921;-67
2022/07/21 00:54:19;;;;;;;2.50;1.85;;;;;;;27.28;35.56;101432.53;143727;596;46006;-68
2022/07/21 00:56:46;;;;;;;6.87;1.60;;;;;;;27.17;36.28;101432.66;143722;581;47010;-68
2022/07/21 00:59:13;;;;;;;5.32;2.03;;;;;;;27.14;36.03;101432.44;143717;593;47004;-68
2022/07/21 01:01:39;;;;;;;5.35;1.75;;;;;;;27.18;35.58;101422.47;143722;596;47006;-67
2022/07/21 01:04:06;;;;;;;3.53;1.90;;;;;;;27.16;35.78;101416.44;143724;585;47008;-68
2022/07/21 01:06:32;;;;;;;4.68;1.80;;;;;;;27.16;35.37;101417.22;143724;574;47009;-68
2022/07/21 01:08:58;;;;;;;4.32;1.60;;;;;;;27.18;35.16;101414.19;143723;645;47002;-68
2022/07/21 01:11:25;;;;;;;3.20;1.58;;;;;;;27.17;35.82;101412.56;143724;621;46006;-68
2022/07/21 01:13:52;;;;;;;3.58;1.73;;;;;;;27.19;35.68;101410.28;143723;622;47004;-68
2022/07/21 01:16:18;;;;;;;1.70;1.42;;;;;;;27.19;35.21;101416.66;143724;650;47002;-68
2022/07/21 01:18:45;;;;;;;5.68;2.03;;;;;;;27.18;35.79;101415.00;143721;609;47004;-67
2022/07/21 01:21:44;;;;;;;3.58;1.60;;;;;;;27.19;35.61;101397.34;143724;589;46922;-68
2022/07/21 01:24:11;;;;;;;5.05;1.80;;;;;;;27.19;35.43;101402.87;143723;569;47002;-67
2022/07/21 01:26:46;;;;;;;15.27;12.45;;;;;;;27.18;35.56;101403.97;143724;657;47010;-68
2022/07/21 01:29:13;;;;;;;8.60;2.60;;;;;;;27.17;35.22;101396.81;143722;643;47004;-68
2022/07/21 01:31:41;;;;;;;4.50;1.52;;;;;;;27.18;35.42;101397.66;143722;572;49008;-67
2022/07/21 01:34:09;;;;;;;5.12;2.35;;;;;;;27.16;35.68;101400.69;143727;572;46008;-68
2022/07/21 01:36:35;;;;;;;3.40;1.80;;;;;;;27.17;35.69;101396.00;143723;600;47009;-69
2022/07/21 01:41:48;;;;;;;2.50;1.60;;;;;;;27.09;35.65;101392.78;143722;576;47004;-67
2022/07/21 01:44:15;;;;;;;4.03;1.42;;;;;;;27.06;36.15;101387.03;143722;568;47002;-68
2022/07/21 01:46:47;;;;;;;4.07;1.35;;;;;;;27.04;35.74;101390.06;143724;586;47008;-68
2022/07/21 01:49:16;;;;;;;2.37;1.30;;;;;;;27.05;35.98;101385.41;143722;603;47004;-68
2022/07/21 01:51:42;;;;;;;6.18;1.55;;;;;;;27.00;36.78;101378.00;143724;586;47006;-67
2022/07/21 01:54:10;;;;;;;5.18;1.70;;;;;;;27.03;36.46;101379.34;143725;604;47006;-68
2022/07/21 01:56:38;;;;;;;6.07;1.55;;;;;;;26.99;36.71;101376.37;143726;575;46026;-68
2022/07/21 01:59:05;;;;;;;4.65;1.70;;;;;;;26.91;37.50;101380.59;143722;611;47007;-68
2022/07/21 02:01:32;;;;;;;4.18;1.90;;;;;;;26.83;37.57;101383.19;143722;586;46008;-68
2022/07/21 02:04:01;;;;;;;7.28;2.83;;;;;;;26.79;37.84;101380.13;143726;572;47004;-68
2022/07/21 02:06:29;;;;;;;4.32;2.00;;;;;;;26.75;37.48;101385.41;143723;567;47006;-67
2022/07/21 02:08:55;;;;;;;2.97;2.05;;;;;;;26.72;37.33;101388.75;143723;644;47004;-68
2022/07/21 02:11:22;;;;;;;5.20;1.80;;;;;;;26.72;36.86;101377.72;143722;649;47008;-68
2022/07/21 02:13:49;;;;;;;3.05;1.90;;;;;;;26.72;37.61;101385.19;143727;573;47008;-67
2022/07/21 02:16:16;;;;;;;5.03;2.22;;;;;;;26.74;37.00;101385.72;143725;593;47010;-68
2022/07/21 02:18:43;;;;;;;5.68;2.10;;;;;;;26.73;37.63;101375.81;143722;622;47006;-67
2022/07/21 02:21:09;;;;;;;1.60;1.35;;;;;;;26.74;37.74;101380.22;143724;686;46926;-68
2022/07/21 02:23:36;;;;;;;3.00;1.75;;;;;;;26.76;37.35;101378.81;143725;609;47002;-68
2022/07/21 02:26:03;;;;;;;5.10;1.77;;;;;;;26.77;37.30;101377.69;143725;601;47012;-67
2022/07/21 02:28:29;;;;;;;3.30;2.00;;;;;;;26.74;37.47;101389.28;143723;728;47005;-68
2022/07/21 02:30:56;;;;;;;5.35;1.87;;;;;;;26.74;38.08;101377.47;143726;607;46008;-67
2022/07/21 02:33:22;;;;;;;4.97;2.12;;;;;;;26.76;37.71;101377.97;143724;576;47004;-68
2022/07/21 02:35:49;;;;;;;2.47;1.67;;;;;;;26.74;37.96;101375.50;143724;568;47011;-67
2022/07/21 02:38:15;;;;;;;5.70;1.67;;;;;;;26.75;37.41;101381.84;143719;590;47006;-68
2022/07/21 02:40:42;;;;;;;5.90;2.12;;;;;;;26.76;37.52;101383.47;143727;597;46008;-67
2022/07/21 02:43:09;;;;;;;4.53;1.80;;;;;;;26.76;36.58;101383.47;143726;631;47006;-67
2022/07/21 02:45:36;;;;;;;3.60;1.80;;;;;;;26.78;37.33;101381.25;143725;600;46030;-67
2022/07/21 02:48:09;;;;;;;5.90;2.03;;;;;;;26.81;36.71;101388.97;143726;645;47004;-67
2022/07/21 02:50:38;;;;;;;2.85;1.70;;;;;;;26.83;36.18;101389.50;143726;618;46021;-68
2022/07/21 02:53:11;;;;;;;5.22;2.00;;;;;;;26.85;36.00;101387.28;143726;591;47006;-68
2022/07/21 02:55:38;;;;;;;2.87;1.45;;;;;;;26.78;36.46;101384.84;143727;620;47010;-68
2022/07/21 02:58:25;;;;;;;3.53;1.73;;;;;;;26.72;36.55;101382.44;143722;604;47006;-67
2022/07/21 03:01:03;;;;;;;6.80;2.25;;;;;;;26.66;36.82;101381.66;143725;567;47008;-67
2022/07/21 03:03:33;;;;;;;3.53;1.87;;;;;;;26.60;37.09;101385.59;143726;605;47004;-67
2022/07/21 03:06:00;;;;;;;5.43;1.58;;;;;;;26.60;36.63;101380.88;143722;591;47013;-68
2022/07/21 03:08:28;;;;;;;3.62;1.62;;;;;;;26.58;36.64;101379.53;143722;596;47006;-67
2022/07/21 03:10:55;;;;;;;2.50;1.65;;;;;;;26.56;36.83;101384.53;143726;591;47008;-68
2022/07/21 03:13:21;;;;;;;4.43;1.60;;;;;;;26.52;36.11;101380.69;143724;622;47004;-68
2022/07/21 03:15:48;;;;;;;4.50;1.85;;;;;;;26.52;36.80;101387.03;143725;567;47012;-74
2022/07/21 03:18:14;;;;;;;5.45;1.52;;;;;;;26.55;36.22;101388.38;143725;735;47006;-64
2022/07/21 03:20:42;;;;;;;2.85;1.50;;;;;;;26.54;36.22;101384.81;143728;708;46009;-68
2022/07/21 03:23:09;;;;;;;3.35;1.50;;;;;;;26.57;36.56;101377.91;143730;581;46010;-67
2022/07/21 03:25:35;;;;;;;5.45;1.48;;;;;;;26.55;35.93;101383.72;143725;589;47010;-67
2022/07/21 03:28:02;;;;;;;4.53;1.67;;;;;;;26.56;36.11;101385.34;143723;656;47006;-68
2022/07/21 03:30:30;;;;;;;3.10;1.60;;;;;;;26.56;36.07;101381.75;143728;595;46008;-68
2022/07/21 03:32:56;;;;;;;4.12;1.55;;;;;;;26.56;36.09;101376.25;143726;579;47006;-67
2022/07/21 03:35:23;;;;;;;3.40;1.42;;;;;;;26.60;36.43;101380.09;143724;577;47011;-67
2022/07/21 03:37:57;;;;;;;4.85;1.37;;;;;;;26.61;35.98;101374.25;143729;569;46006;-68
2022/07/21 03:40:26;;;;;;;3.40;1.67;;;;;;;26.60;36.19;101371.81;143728;617;46023;-67
2022/07/21 03:42:54;;;;;;;7.87;1.50;;;;;;;26.58;36.40;101380.34;143725;566;47007;-67
2022/07/21 03:45:21;;;;;;;8.88;2.05;;;;;;;26.59;36.29;101382.00;143723;631;47885;-67
2022/07/21 03:47:48;;;;;;;8.77;1.75;;;;;;;26.63;36.65;101385.00;143724;603;47006;-68
2022/07/21 03:50:17;;;;;;;5.07;1.67;;;;;;;26.66;36.56;101380.84;143727;594;47008;-68
2022/07/21 03:52:44;;;;;;;5.68;1.65;;;;;;;26.60;37.23;101380.09;143725;625;47004;-67
2022/07/21 03:55:14;;;;;;;4.03;1.92;;;;;;;26.60;37.44;101380.09;143726;659;46033;-68
2022/07/21 03:57:52;;;;;;;3.58;1.80;;;;;;;26.62;37.08;101375.09;143723;587;47932;-67
2022/07/21 04:00:25;;;;;;;5.65;2.22;;;;;;;26.61;37.30;101390.78;143726;703;46008;-65
2022/07/21 04:02:53;;;;;;;4.95;2.08;;;;;;;26.58;37.70;101388.63;143726;573;47006;-68
2022/07/21 04:05:20;;;;;;;4.78;2.22;;;;;;;26.60;38.11;101391.91;143725;612;47012;-68
2022/07/21 04:07:48;;;;;;;8.52;2.47;;;;;;;26.58;38.06;101388.63;143723;654;47004;-68
2022/07/21 04:10:17;;;;;;;3.70;2.08;;;;;;;26.60;37.74;101389.16;143727;693;47008;-68
2022/07/21 04:12:44;;;;;;;6.43;2.17;;;;;;;26.66;38.30;101383.59;143724;573;48016;-68
2022/07/21 04:15:11;;;;;;;3.60;2.00;;;;;;;26.58;37.59;101383.09;143726;574;47010;-68
2022/07/21 04:17:38;;;;;;;7.12;2.17;;;;;;;26.63;37.45;101390.53;143721;624;47006;-68
2022/07/21 04:20:06;;;;;;;4.03;2.05;;;;;;;26.67;37.40;101383.28;143724;637;47008;-68
2022/07/21 04:22:33;;;;;;;6.05;2.10;;;;;;;26.76;36.42;101384.31;143726;670;47004;-68
2022/07/21 04:25:00;;;;;;;4.62;1.60;;;;;;;26.81;37.45;101396.44;143726;609;46012;-68
2022/07/21 04:27:27;;;;;;;7.10;2.30;;;;;;;26.79;38.03;101385.66;143726;587;47006;-68
2022/07/21 04:29:54;;;;;;;7.15;2.28;;;;;;;26.86;37.98;101388.09;143726;581;47008;-68
2022/07/21 04:32:20;;;;;;;8.48;2.90;;;;;;;26.91;37.29;101388.88;143727;721;47002;-68
2022/07/21 04:34:47;;;;;;;6.55;2.58;;;;;;;26.98;36.37;101388.50;143726;608;47010;-68
2022/07/21 04:37:13;;;;;;;5.50;2.78;;;;;;;27.05;36.51;101397.22;143724;626;47006;-67
2022/07/21 04:39:39;;;;;;;12.93;3.15;;;;;;;27.10;36.00;101388.06;143726;602;47008;-68
2022/07/21 04:42:06;;;;;;;9.25;3.30;;;;;;;27.16;36.07;101389.66;143727;569;47005;-68
2022/07/21 04:44:32;;;;;;;9.65;3.65;;;;;;;27.24;35.60;101390.94;143725;590;47012;-68
2022/07/21 04:47:00;;;;;;;9.73;3.60;;;;;;;27.31;36.29;101393.31;143722;622;47006;-68
2022/07/21 04:49:26;;;;;;;10.23;3.15;;;;;;;27.36;36.18;101396.03;143724;639;46008;-68
2022/07/21 04:51:52;;;;;;;9.20;3.08;;;;;;;27.36;36.37;101396.84;143726;600;47006;-68
2022/07/21 04:54:19;;;;;;;8.45;3.00;;;;;;;27.36;35.63;101404.31;143725;568;47012;-68
2022/07/21 04:56:46;;;;;;;6.00;2.40;;;;;;;27.30;35.80;101397.19;143723;609;47006;-67
2022/07/21 04:59:12;;;;;;;8.50;2.62;;;;;;;27.35;36.26;101403.50;143726;577;46008;-68
2022/07/21 05:01:39;;;;;;;7.78;2.55;;;;;;;27.37;35.77;101401.25;143726;627;47006;-68
2022/07/21 05:04:06;;;;;;;7.87;2.65;;;;;;;27.39;36.01;101403.72;143725;589;47012;-68
2022/07/21 05:06:33;;;;;;;12.52;3.58;;;;;;;27.31;36.62;101405.19;143721;608;47006;-68
2022/07/21 05:09:01;;;;;;;6.70;2.83;;;;;;;27.43;36.28;101412.22;143725;568;47008;-68
2022/07/21 05:11:27;;;;;;;7.45;2.90;;;;;;;27.52;35.90;101407.72;143726;592;47006;-67
2022/07/21 05:13:53;;;;;;;8.75;2.85;;;;;;;27.59;36.40;101419.19;143725;654;46015;-67
2022/07/21 05:16:20;;;;;;;12.15;2.70;;;;;;;27.65;37.01;101411.66;143724;632;47006;-67
2022/07/21 05:18:47;;;;;;;8.25;3.05;;;;;;;27.71;35.75;101406.91;143727;600;46009;-67
2022/07/21 05:21:13;;;;;;;7.97;2.60;;;;;;;27.72;35.18;101412.13;143724;589;47004;-68
2022/07/21 05:23:39;;;;;;;10.63;3.17;;;;;;;27.80;35.03;101416.13;143727;634;46010;-68
2022/07/21 05:26:06;;;;;;;6.80;2.67;;;;;;;27.87;35.50;101411.06;143723;578;47006;-67
2022/07/21 05:28:32;;;;;;;8.38;2.83;;;;;;;27.93;35.59;101411.81;143723;573;47002;-68
2022/07/21 05:30:58;;;;;;;10.55;2.90;;;;;;;27.99;35.95;101413.34;143726;598;47004;-68
2022/07/21 05:33:25;;;;;;;8.90;2.58;;;;;;;28.02;35.12;101410.00;143724;710;47012;-67
2022/07/21 05:35:51;;;;;;;5.18;3.40;;;;;;;28.05;35.38;101412.16;143724;580;47006;-67
2022/07/21 05:38:18;;;;;;;10.45;3.15;;;;;;;28.07;35.33;101407.16;143727;590;46008;-67
2022/07/21 05:40:44;;;;;;;8.95;2.83;;;;;;;28.13;34.93;101406.00;143729;593;47006;-67
2022/07/21 05:43:10;;;;;;;8.63;3.58;;;;;;;28.16;35.34;101407.31;143726;634;47010;-68
2022/07/21 05:45:41;;;;;;;9.40;2.65;;;;;;;28.23;35.07;101405.00;143723;569;47006;-78
2022/07/21 05:48:07;;;;;;;7.12;2.75;;;;;;;28.29;35.62;101402.97;143724;615;47009;-78
2022/07/21 05:50:34;;;;;;;12.25;2.45;;;;;;;28.33;34.72;101411.47;143727;719;47012;-69
2022/07/21 05:53:02;;;;;;;15.07;13.57;;;;;;;28.37;35.27;101405.03;143723;603;47006;-77
2022/07/21 05:55:28;;;;;;;7.95;3.15;;;;;;;28.42;35.26;101398.59;143725;573;47015;-78
2022/07/21 05:57:54;;;;;;;5.03;3.00;;;;;;;28.46;36.12;101402.38;143722;572;47008;-76
2022/07/21 06:00:21;;;;;;;8.65;2.65;;;;;;;28.52;35.84;101397.56;143728;645;46012;-77
2022/07/21 06:02:50;;;;;;;5.18;2.30;;;;;;;28.51;34.44;101399.53;143724;593;47011;-78
2022/07/21 06:05:17;;;;;;;11.88;2.53;;;;;;;28.58;35.31;101391.69;143725;575;47010;-75
2022/07/21 06:07:43;;;;;;;7.80;1.95;;;;;;;28.62;34.20;101389.13;143724;595;47008;-74
2022/07/21 06:10:12;;;;;;;6.10;1.87;;;;;;;28.67;34.49;101383.50;143724;579;48004;-75
2022/07/21 06:12:38;;;;;;;5.55;2.10;;;;;;;28.73;34.94;101376.75;143728;586;46011;-74
2022/07/21 06:15:06;;;;;;;7.07;2.20;;;;;;;28.81;35.27;101379.94;143725;602;47006;-74
2022/07/21 06:17:43;;;;;;;7.60;2.20;;;;;;;28.87;35.06;101382.28;143726;614;46008;-76
2022/07/21 06:20:10;;;;;;;2.55;1.80;;;;;;;28.94;34.04;101384.66;143726;572;47004;-70
2022/07/21 06:22:37;;;;;;;10.43;2.80;;;;;;;29.01;34.65;101392.53;143723;592;47006;-74
2022/07/21 06:25:05;;;;;;;4.55;2.25;;;;;;;29.07;35.30;101384.94;143726;606;47006;-75
2022/07/21 06:27:32;;;;;;;6.07;2.10;;;;;;;29.13;34.70;101383.72;143726;586;46580;-71
2022/07/21 06:29:59;;;;;;;4.72;2.10;;;;;;;29.19;33.92;101385.25;143725;583;47004;-75
2022/07/21 06:32:26;;;;;;;8.35;2.08;;;;;;;29.24;34.12;101376.03;143721;572;48927;-72
2022/07/21 06:34:52;;;;;;;4.65;1.85;;;;;;;29.30;32.71;101385.84;143724;573;47006;-72
2022/07/21 06:37:18;;;;;;;6.43;1.90;;;;;;;29.37;33.54;101386.25;143727;608;46024;-72
2022/07/21 06:39:45;;;;;;;4.78;2.78;;;;;;;29.43;32.00;101384.19;143726;597;47004;-71
2022/07/21 06:42:11;;;;;;;4.65;1.92;;;;;;;29.46;31.96;101384.41;143726;572;47011;-72
2022/07/21 06:44:38;;;;;;;4.47;1.65;;;;;;;29.50;31.18;101385.41;143721;599;47006;-72
2022/07/21 06:47:04;;;;;;;3.62;1.20;;;;;;;29.56;30.81;101380.59;143724;583;47008;-72
2022/07/21 06:49:34;;;;;;;3.67;1.60;;;;;;;29.62;30.78;101372.97;143725;584;47004;-72
2022/07/21 06:52:00;;;;;;;7.12;5.45;;;;;;;29.67;31.02;101380.34;143723;586;47010;-70
2022/07/21 06:54:27;;;;;;;5.47;2.33;;;;;;;29.70;30.70;101371.41;143724;606;47006;-71
2022/07/21 06:56:53;;;;;;;4.25;1.98;;;;;;;29.71;30.51;101365.56;143726;583;47009;-71
2022/07/21 06:59:19;;;;;;;4.47;1.48;;;;;;;29.74;30.42;101373.25;143727;636;47002;-72
2022/07/21 07:01:46;;;;;;;3.28;1.40;;;;;;;29.80;30.32;101373.94;143726;567;46010;-71
2022/07/21 07:04:12;;;;;;;7.47;1.73;;;;;;;29.86;31.04;101367.16;143725;567;47006;-71
2022/07/21 07:06:38;;;;;;;4.05;1.62;;;;;;;29.90;30.45;101367.31;143726;591;46008;-71
2022/07/21 07:09:05;;;;;;;7.80;1.98;;;;;;;29.92;30.20;101359.53;143726;620;47006;-72
2022/07/21 07:11:34;;;;;;;3.92;1.80;;;;;;;29.99;30.79;101359.09;143726;580;47011;-75
2022/07/21 07:14:01;;;;;;;9.52;7.93;;;;;;;30.05;30.32;101358.66;143724;601;47006;-74
2022/07/21 07:16:27;;;;;;;5.57;1.48;;;;;;;30.09;30.24;101353.31;143724;608;46008;-69
2022/07/21 07:18:54;;;;;;;2.33;1.40;;;;;;;30.16;30.34;101361.19;143726;598;47004;-70
2022/07/21 07:21:20;;;;;;;4.87;1.40;;;;;;;30.21;30.03;101358.25;143725;576;47010;-69
2022/07/21 07:23:46;;;;;;;3.22;1.55;;;;;;;30.24;29.66;101358.47;143724;634;47006;-69
2022/07/21 07:26:13;;;;;;;3.47;1.12;;;;;;;30.30;29.87;101355.53;143725;568;46926;-69
2022/07/21 07:28:39;;;;;;;5.60;1.85;;;;;;;30.34;29.91;101353.78;143724;706;47004;-69
2022/07/21 07:31:06;;;;;;;4.80;1.52;;;;;;;30.38;29.49;101352.00;143726;608;47010;-70
2022/07/21 07:33:32;;;;;;;5.15;1.42;;;;;;;30.45;29.78;101346.81;143724;585;47006;-69
2022/07/21 07:35:58;;;;;;;4.50;1.52;;;;;;;30.52;29.72;101338.06;143726;568;47008;-70
2022/07/21 07:38:25;;;;;;;2.97;1.30;;;;;;;30.55;29.80;101332.72;143725;655;47002;-70
2022/07/21 07:40:52;;;;;;;2.35;1.58;;;;;;;30.65;29.81;101336.31;143722;589;47011;-69
2022/07/21 07:43:18;;;;;;;2.60;1.70;;;;;;;30.72;29.27;101333.91;143721;620;47006;-68
2022/07/21 07:45:45;;;;;;;5.85;1.80;;;;;;;30.78;29.42;101329.84;143724;662;46925;-69
2022/07/21 07:48:11;;;;;;;3.42;1.27;;;;;;;30.83;29.38;101328.87;143723;587;47006;-70
2022/07/21 07:50:38;;;;;;;2.65;1.40;;;;;;;30.85;29.43;101329.38;143719;600;47010;-70
2022/07/21 07:53:04;;;;;;;6.57;1.55;;;;;;;30.91;29.47;101332.81;143722;741;47006;-71
2022/07/21 07:55:31;;;;;;;3.40;1.65;;;;;;;30.96;29.52;101318.81;143724;575;46008;-70
2022/07/21 07:57:58;;;;;;;5.40;1.33;;;;;;;31.01;29.33;101326.94;143723;597;47004;-70
2022/07/21 08:00:25;;;;;;;3.78;1.80;;;;;;;31.05;29.64;101327.12;143717;706;48006;-70
2022/07/21 08:02:51;;;;;;;5.12;2.60;;;;;;;31.10;29.91;101327.78;143724;588;46015;-70
2022/07/21 08:05:17;;;;;;;4.37;1.50;;;;;;;31.17;29.30;101319.00;143722;591;47008;-70
2022/07/21 08:07:43;;;;;;;2.12;1.33;;;;;;;31.22;29.38;101331.91;143725;574;47002;-70
2022/07/21 08:10:12;;;;;;;2.35;1.45;;;;;;;31.29;30.17;101333.06;143724;597;46012;-70
2022/07/21 08:12:39;;;;;;;5.78;1.52;;;;;;;31.36;29.55;101340.09;143721;596;47006;-69
2022/07/21 08:15:06;;;;;;;3.35;1.45;;;;;;;31.41;29.60;101323.28;143724;588;47008;-70
2022/07/21 08:17:32;;;;;;;5.30;1.33;;;;;;;31.47;29.37;101327.50;143722;633;47006;-70
2022/07/21 08:19:59;;;;;;;4.37;1.50;;;;;;;31.53;29.42;101323.44;143722;584;47012;-70
2022/07/21 08:22:25;;;;;;;4.20;1.42;;;;;;;31.59;29.21;101337.97;143722;570;47006;-72
2022/07/21 08:24:52;;;;;;;3.65;1.58;;;;;;;31.61;28.94;101328.16;143725;567;47009;-70
2022/07/21 08:27:18;;;;;;;2.00;1.30;;;;;;;31.69;28.79;101329.28;143726;573;47002;-68
2022/07/21 08:29:46;;;;;;;2.28;1.37;;;;;;;31.77;28.74;101329.63;143723;584;47010;-69
2022/07/21 08:32:12;;;;;;;1.98;1.40;;;;;;;31.84;29.16;101335.53;143721;659;47006;-68
2022/07/21 08:34:38;;;;;;;2.53;1.58;;;;;;;31.88;28.65;101342.88;143724;613;46022;-68
2022/07/21 08:37:05;;;;;;;3.97;1.50;;;;;;;31.88;28.26;101337.31;143725;607;47006;-69
2022/07/21 08:39:31;;;;;;;2.22;1.37;;;;;;;31.95;28.33;101330.44;143724;714;46927;-69
2022/07/21 08:41:59;;;;;;;7.37;1.65;;;;;;;32.01;28.17;101329.94;143720;585;47006;-68
2022/07/21 08:44:26;;;;;;;2.45;1.30;;;;;;;32.07;28.38;101325.00;143725;616;46008;-69
2022/07/21 08:46:52;;;;;;;4.90;1.62;;;;;;;32.14;28.35;101330.84;143725;618;47006;-69
2022/07/21 08:49:22;;;;;;;2.20;1.55;;;;;;;32.20;28.13;101332.31;143726;609;46011;-69
2022/07/21 08:51:51;;;;;;;5.82;1.90;;;;;;;32.24;27.63;101323.31;223161;57;47006;-69
2022/07/21 08:54:21;;;;;;;3.87;1.80;;;;;;;32.32;27.95;101326.09;143725;593;46009;-71
2022/07/21 08:56:48;;;;;;;2.45;1.30;;;;;;;32.41;28.06;101331.63;143726;633;47004;-68
2022/07/21 08:59:14;;;;;;;7.55;2.30;;;;;;;32.50;27.71;101323.25;143723;584;47010;-69
2022/07/21 09:01:40;;;;;;;7.65;2.78;;;;;;;32.55;27.01;101323.06;143721;570;47006;-69
2022/07/21 09:04:28;;;;;;;10.27;3.37;;;;;;;32.65;27.53;101324.66;143722;586;46023;-69
2022/07/21 09:07:00;;;;;;;4.60;2.00;;;;;;;32.73;27.08;101320.19;143721;567;47006;-69
2022/07/21 09:09:29;;;;;;;6.15;5.55;;;;;;;32.79;26.95;101324.38;143721;579;47942;-71
2022/07/21 09:11:56;;;;;;;7.15;4.12;;;;;;;32.84;26.36;101326.19;143723;573;47004;-71
2022/07/21 09:14:26;;;;;;;6.28;4.62;;;;;;;32.91;26.61;101329.25;143719;623;49925;-69
2022/07/21 09:16:57;;;;;;;7.20;2.03;;;;;;;32.99;26.45;101325.63;143723;604;47004;-69
2022/07/21 09:19:38;;;;;;;7.85;3.10;;;;;;;33.06;26.51;101320.31;143724;596;47010;-69
2022/07/21 09:22:07;;;;;;;5.30;3.70;;;;;;;33.14;26.58;101326.16;143721;574;47004;-68
2022/07/21 09:24:39;;;;;;;4.30;2.90;;;;;;;33.19;26.30;101320.38;143722;574;47008;-69
2022/07/21 09:27:14;;;;;;;6.85;3.37;;;;;;;33.24;26.08;101322.97;143724;578;47004;-69
2022/07/21 09:29:56;;;;;;;9.50;6.70;;;;;;;33.25;25.29;101322.66;143723;599;47010;-70
2022/07/21 09:32:31;;;;;;;4.93;3.70;;;;;;;33.29;25.45;101319.16;143723;586;48004;-71
2022/07/21 09:35:06;;;;;;;6.72;3.30;;;;;;;33.32;25.52;101330.44;143725;586;46022;-71
2022/07/21 09:37:34;;;;;;;7.22;5.55;;;;;;;33.39;25.55;101321.56;143719;627;48008;-70
2022/07/21 09:40:07;;;;;;;7.25;5.20;;;;;;;33.43;25.39;101324.47;143723;590;46011;-71
2022/07/21 09:42:48;;;;;;;6.15;3.22;;;;;;;33.48;24.75;101315.94;143721;583;47006;-70
2022/07/21 09:45:17;;;;;;;6.20;2.87;;;;;;;33.59;25.06;101310.75;143721;707;47008;-70
2022/07/21 09:47:45;;;;;;;10.60;3.97;;;;;;;33.67;25.88;101319.03;143723;651;47006;-71
2022/07/21 09:50:16;;;;;;;5.07;2.58;;;;;;;33.75;26.18;101316.47;143721;584;47012;-72
2022/07/21 09:52:44;;;;;;;5.03;4.20;;;;;;;33.83;25.28;101310.81;189941;57;51505;-70
2022/07/21 09:55:13;;;;;;;5.72;3.05;;;;;;;33.89;24.87;101313.41;143723;598;47007;-70
2022/07/21 09:57:40;;;;;;;3.97;2.75;;;;;;;33.94;24.81;101322.38;143684;590;52006;-69
2022/07/21 10:00:15;;;;;;;5.37;3.45;;;;;;;33.98;23.85;101320.53;143720;569;46919;-70
2022/07/21 10:02:43;;;;;;;2.62;2.30;;;;;;;34.05;24.53;101316.38;143719;607;46011;-70
2022/07/21 10:05:13;;;;;;;7.57;4.05;;;;;;;34.12;24.14;101313.81;143720;577;48927;-70
2022/07/21 10:07:43;;;;;;;4.35;2.37;;;;;;;34.15;23.28;101324.28;143716;581;49008;-70
2022/07/21 10:10:10;;;;;;;4.18;2.10;;;;;;;34.23;23.28;101316.97;143723;595;47011;-70
2022/07/21 10:12:36;;;;;;;5.80;2.40;;;;;;;34.23;24.90;101303.84;143711;626;51004;-69
2022/07/21 10:15:04;;;;;;;5.35;2.42;;;;;;;34.29;25.16;101313.59;143715;586;47006;-69
2022/07/21 10:17:31;;;;;;;6.75;3.10;;;;;;;34.39;24.37;101306.75;143721;687;47004;-69
2022/07/21 10:20:21;;;;;;;8.45;4.68;;;;;;;34.40;28.09;101321.53;143722;583;47012;-70
2022/07/21 10:23:18;;;;;;;6.07;2.78;;;;;;;34.35;29.53;101316.16;143719;567;47006;-71
2022/07/21 10:25:46;;;;;;;4.78;2.20;;;;;;;34.32;29.39;101312.13;143723;644;47006;-71
2022/07/21 10:28:23;;;;;;;5.78;2.00;;;;;;;34.23;29.70;101303.84;143718;579;47006;-70
2022/07/21 10:30:58;;;;;;;3.53;2.20;;;;;;;34.22;29.37;101298.63;143724;645;47010;-70
2022/07/21 10:34:01;;;;;;;3.45;1.67;;;;;;;34.30;27.78;101298.50;143717;599;47004;-70
2022/07/21 10:36:47;;;;;;;3.87;2.00;;;;;;;34.41;28.77;101295.28;143723;638;47013;-70
2022/07/21 10:39:22;;;;;;;3.78;2.25;;;;;;;34.43;28.62;101293.78;143724;618;47004;-69
2022/07/21 10:41:54;;;;;;;7.25;2.83;;;;;;;34.42;28.53;101280.19;143716;584;50010;-69
2022/07/21 10:44:49;;;;;;;3.50;2.58;;;;;;;34.49;28.46;101283.19;143722;579;46010;-70
2022/07/21 10:47:25;;;;;;;5.35;2.35;;;;;;;34.60;25.88;101270.38;143723;647;47008;-69
2022/07/21 10:49:57;;;;;;;4.28;2.20;;;;;;;34.65;28.00;101280.53;143724;594;47008;-68
2022/07/21 10:52:56;;;;;;;6.00;2.33;;;;;;;34.69;28.42;101289.78;197430;57;195027;-69
2022/07/21 10:55:26;;;;;;;4.65;2.53;;;;;;;34.62;29.00;101284.00;143723;628;46924;-68
2022/07/21 10:58:18;;;;;;;4.45;2.03;;;;;;;34.50;28.69;101290.41;143722;572;48004;-71
2022/07/21 11:01:32;;;;;;;3.97;2.10;;;;;;;34.24;26.90;101285.94;143724;573;47002;-70
2022/07/21 11:04:20;;;;;;;6.35;2.10;;;;;;;34.19;26.87;101272.25;143706;653;49004;-69
2022/07/21 11:06:46;;;;;;;3.35;1.85;;;;;;;34.23;27.57;101275.16;143722;601;47005;-70
2022/07/21 11:09:19;;;;;;;2.22;1.62;;;;;;;34.21;27.70;101274.69;143723;603;46009;-68
2022/07/21 11:12:04;;;;;;;5.05;2.37;;;;;;;34.31;26.62;101274.25;143717;627;50008;-68
2022/07/21 11:14:41;;;;;;;3.20;1.83;;;;;;;34.39;27.37;101272.50;143717;647;49004;-69
2022/07/21 11:17:10;;;;;;;6.32;1.83;;;;;;;34.42;26.58;101267.06;143721;593;47007;-68
2022/07/21 11:19:46;;;;;;;7.03;1.83;;;;;;;34.44;26.60;101272.25;143725;569;46008;-70
2022/07/21 11:22:27;;;;;;;5.20;2.10;;;;;;;34.41;27.43;101265.41;143725;580;47004;-70
2022/07/21 11:25:03;;;;;;;2.22;1.90;;;;;;;34.31;28.05;101258.31;143723;572;47012;-70
2022/07/21 11:27:32;;;;;;;3.80;2.20;;;;;;;34.42;27.80;101266.25;143720;615;47006;-70
2022/07/21 11:30:01;;;;;;;4.22;2.20;;;;;;;34.51;26.95;101260.56;143721;605;47008;-71
2022/07/21 11:32:28;;;;;;;5.97;2.30;;;;;;;34.54;27.14;101265.41;143724;653;47004;-71
2022/07/21 11:34:57;;;;;;;3.28;1.80;;;;;;;34.57;27.49;101265.53;143722;584;47012;-70